createdAt,value
2018-09-27T00:00:58.058Z,10.42
2018-09-27T00:01:58.099Z,10.43
2018-09-27T00:02:58.009Z,10.55
2018-09-27T00:03:58.110Z,10.56
2018-09-27T00:04:57.963Z,10.40
2018-09-27T00:05:59.058Z,10.43
2018-09-27T00:06:57.910Z,10.43
2018-09-27T00:07:57.950Z,10.51
2018-09-27T00:08:57.859Z,10.53
2018-09-27T00:09:57.951Z,10.56
2018-09-27T00:10:57.809Z,10.55
2018-09-27T00:11:57.781Z,10.52
2018-09-27T00:12:57.869Z,10.47
2018-09-27T00:13:57.734Z,10.44
2018-09-27T00:14:57.783Z,10.44
2018-09-27T00:15:57.683Z,10.46
2018-09-27T00:16:57.663Z,10.46
2018-09-27T00:17:57.631Z,10.43
2018-09-27T00:18:57.711Z,10.46
2018-09-27T00:19:57.579Z,10.30
2018-09-27T00:20:57.620Z,10.37
2018-09-27T00:21:57.534Z,10.36
2018-09-27T00:22:57.509Z,10.37
2018-09-27T00:23:57.547Z,10.36
2018-09-27T00:24:57.458Z,10.52
2018-09-27T00:25:57.559Z,10.52
2018-09-27T00:26:57.399Z,10.37
2018-09-27T00:27:57.391Z,10.55
2018-09-27T00:28:57.349Z,10.43
2018-09-27T00:29:57.479Z,10.53
2018-09-27T00:30:57.300Z,10.40
2018-09-27T00:31:57.395Z,10.43
2018-09-27T00:32:57.400Z,10.42
2018-09-27T00:33:57.230Z,10.34
2018-09-27T00:34:57.313Z,10.39
2018-09-27T00:35:57.180Z,10.30
2018-09-27T00:36:57.220Z,10.19
2018-09-27T00:37:57.129Z,10.24
2018-09-27T00:38:57.240Z,10.22
2018-09-27T00:39:57.085Z,10.21
2018-09-27T00:40:57.149Z,10.21
2018-09-27T00:41:57.031Z,10.19
2018-09-27T00:42:57.169Z,10.18
2018-09-27T00:43:56.969Z,10.09
2018-09-27T00:44:57.070Z,10.10
2018-09-27T00:45:56.921Z,10.10
2018-09-27T00:46:56.999Z,10.21
2018-09-27T00:47:56.889Z,10.17
2018-09-27T00:48:56.849Z,10.12
2018-09-27T00:49:56.909Z,10.04
2018-09-27T00:50:56.799Z,10.01
2018-09-27T00:51:56.922Z,10.06
2018-09-27T00:52:56.756Z,9.89
2018-09-27T00:53:56.727Z,9.91
2018-09-27T00:54:56.693Z,9.83
2018-09-27T00:55:56.849Z,9.91
2018-09-27T00:56:56.651Z,9.88
2018-09-27T00:57:56.758Z,9.88
2018-09-27T00:58:56.591Z,10.00
2018-09-27T00:59:56.668Z,10.00
2018-09-27T01:00:56.538Z,9.93
2018-09-27T01:01:56.579Z,10.01
2018-09-27T01:02:56.488Z,9.83
2018-09-27T01:03:56.487Z,9.88
2018-09-27T01:04:56.439Z,9.85
2018-09-27T01:05:56.507Z,9.86
2018-09-27T01:06:56.402Z,9.83
2018-09-27T01:07:56.421Z,9.78
2018-09-27T01:08:56.337Z,9.79
2018-09-27T01:09:56.317Z,9.82
2018-09-27T01:10:56.287Z,9.71
2018-09-27T01:11:56.337Z,9.75
2018-09-27T01:12:56.238Z,9.75
2018-09-27T01:13:56.260Z,9.78
2018-09-27T01:14:56.190Z,9.76
2018-09-27T01:15:56.276Z,9.73
2018-09-27T01:16:56.137Z,9.83
2018-09-27T01:17:56.186Z,9.78
2018-09-27T01:18:56.086Z,9.75
2018-09-27T01:19:56.096Z,9.78
2018-09-27T01:20:56.037Z,9.68
2018-09-27T01:21:56.107Z,9.67
2018-09-27T01:22:56.000Z,9.68
2018-09-27T01:23:56.017Z,9.75
2018-09-27T01:24:55.927Z,9.79
2018-09-27T01:25:55.907Z,9.70
2018-09-27T01:26:55.941Z,9.82
2018-09-27T01:27:55.858Z,9.79
2018-09-27T01:28:55.848Z,9.78
2018-09-27T01:29:55.807Z,9.78
2018-09-27T01:30:55.817Z,9.73
2018-09-27T01:31:55.754Z,9.71
2018-09-27T01:32:55.778Z,9.81
2018-09-27T01:33:55.701Z,9.66
2018-09-27T01:34:55.788Z,9.64
2018-09-27T01:35:55.697Z,9.64
2018-09-27T01:36:55.629Z,9.60
2018-09-27T01:37:55.708Z,9.57
2018-09-27T01:38:55.568Z,9.60
2018-09-27T01:39:55.617Z,9.60
2018-09-27T01:40:55.516Z,9.60
2018-09-27T01:41:55.527Z,9.61
2018-09-27T01:42:55.465Z,9.61
2018-09-27T01:43:55.547Z,9.63
2018-09-27T01:44:55.426Z,9.63
2018-09-27T01:45:55.456Z,9.63
2018-09-27T01:46:55.396Z,9.66
2018-09-27T01:47:55.367Z,9.64
2018-09-27T01:48:55.316Z,9.53
2018-09-27T01:49:55.389Z,9.58
2018-09-27T01:50:55.268Z,9.61
2018-09-27T01:51:55.247Z,9.52
2018-09-27T01:52:55.298Z,9.57
2018-09-27T01:53:55.197Z,9.50
2018-09-27T01:54:55.226Z,9.45
2018-09-27T01:55:55.136Z,9.48
2018-09-27T01:56:55.107Z,9.50
2018-09-27T01:57:55.097Z,9.48
2018-09-27T01:58:55.140Z,9.53
2018-09-27T01:59:55.037Z,9.45
2018-09-27T02:00:55.063Z,9.50
2018-09-27T02:01:55.057Z,9.49
2018-09-27T02:02:54.963Z,9.49
2018-09-27T02:03:54.967Z,9.40
2018-09-27T02:04:54.907Z,9.40
2018-09-27T02:05:54.992Z,9.38
2018-09-27T02:06:54.848Z,9.35
2018-09-27T02:07:54.827Z,9.35
2018-09-27T02:08:54.897Z,9.35
2018-09-27T02:09:54.777Z,9.38
2018-09-27T02:10:54.818Z,9.25
2018-09-27T02:11:54.728Z,9.28
2018-09-27T02:12:54.700Z,9.32
2018-09-27T02:13:54.741Z,9.32
2018-09-27T02:14:54.659Z,9.34
2018-09-27T02:15:54.647Z,9.32
2018-09-27T02:16:54.597Z,9.31
2018-09-27T02:17:54.567Z,9.34
2018-09-27T02:18:54.538Z,9.32
2018-09-27T02:19:54.571Z,9.31
2018-09-27T02:20:54.487Z,9.34
2018-09-27T02:21:54.480Z,9.35
2018-09-27T02:22:54.437Z,9.27
2018-09-27T02:23:54.500Z,9.30
2018-09-27T02:24:54.388Z,9.30
2018-09-27T02:25:54.410Z,9.27
2018-09-27T02:26:54.337Z,9.28
2018-09-27T02:27:54.418Z,9.25
2018-09-27T02:28:54.297Z,9.18
2018-09-27T02:29:54.338Z,9.31
2018-09-27T02:30:54.229Z,9.24
2018-09-27T02:31:54.251Z,9.15
2018-09-27T02:32:54.179Z,9.15
2018-09-27T02:33:54.166Z,9.15
2018-09-27T02:34:54.140Z,9.21
2018-09-27T02:35:54.168Z,9.16
2018-09-27T02:36:54.086Z,9.13
2018-09-27T02:37:54.090Z,9.12
2018-09-27T02:38:54.028Z,9.13
2018-09-27T02:39:54.101Z,9.09
2018-09-27T02:40:53.978Z,9.12
2018-09-27T02:41:54.015Z,9.12
2018-09-27T02:42:53.918Z,9.10
2018-09-27T02:43:53.919Z,9.04
2018-09-27T02:44:53.868Z,9.09
2018-09-27T02:45:53.938Z,9.10
2018-09-27T02:46:53.821Z,9.13
2018-09-27T02:47:53.849Z,9.16
2018-09-27T02:48:53.767Z,9.16
2018-09-27T02:49:53.738Z,9.24
2018-09-27T02:50:53.768Z,9.20
2018-09-27T02:51:53.686Z,9.15
2018-09-27T02:52:53.780Z,9.13
2018-09-27T02:53:53.641Z,9.05
2018-09-27T02:54:53.609Z,9.10
2018-09-27T02:55:53.588Z,9.05
2018-09-27T02:56:53.719Z,9.10
2018-09-27T02:57:53.531Z,9.02
2018-09-27T02:58:53.617Z,8.99
2018-09-27T02:59:53.488Z,9.02
2018-09-27T03:00:53.457Z,8.97
2018-09-27T03:01:53.538Z,8.97
2018-09-27T03:02:53.406Z,8.93
2018-09-27T03:03:53.547Z,8.96
2018-09-27T03:04:53.347Z,8.97
2018-09-27T03:05:53.327Z,8.88
2018-09-27T03:06:53.309Z,8.99
2018-09-27T03:07:53.381Z,8.93
2018-09-27T03:08:53.248Z,8.96
2018-09-27T03:09:53.388Z,8.97
2018-09-27T03:10:53.287Z,8.96
2018-09-27T03:11:53.177Z,9.01
2018-09-27T03:12:53.318Z,9.01
2018-09-27T03:13:53.142Z,9.02
2018-09-27T03:14:53.218Z,8.93
2018-09-27T03:15:53.059Z,9.01
2018-09-27T03:16:53.041Z,8.88
2018-09-27T03:17:53.137Z,8.84
2018-09-27T03:18:52.990Z,8.90
2018-09-27T03:19:53.047Z,8.90
2018-09-27T03:20:52.973Z,8.90
2018-09-27T03:21:52.914Z,8.86
2018-09-27T03:22:52.879Z,8.86
2018-09-27T03:23:52.977Z,8.86
2018-09-27T03:24:52.833Z,8.84
2018-09-27T03:25:52.990Z,8.91
2018-09-27T03:26:52.898Z,8.87
2018-09-27T03:27:52.752Z,8.88
2018-09-27T03:28:52.908Z,8.90
2018-09-27T03:29:52.697Z,8.93
2018-09-27T03:30:52.818Z,8.87
2018-09-27T03:31:52.640Z,8.90
2018-09-27T03:32:52.728Z,8.88
2018-09-27T03:33:52.596Z,8.90
2018-09-27T03:34:52.661Z,8.90
2018-09-27T03:35:52.540Z,8.83
2018-09-27T03:36:52.659Z,8.87
2018-09-27T03:37:52.488Z,8.86
2018-09-27T03:38:52.568Z,8.83
2018-09-27T03:39:52.453Z,8.86
2018-09-27T03:40:52.596Z,8.88
2018-09-27T03:41:52.378Z,8.87
2018-09-27T03:42:52.360Z,8.88
2018-09-27T03:43:52.330Z,8.86
2018-09-27T03:44:52.508Z,8.87
2018-09-27T03:45:52.270Z,8.86
2018-09-27T03:46:52.419Z,8.87
2018-09-27T03:47:52.229Z,8.87
2018-09-27T03:48:52.330Z,8.87
2018-09-27T03:49:52.176Z,8.83
2018-09-27T03:50:52.360Z,8.87
2018-09-27T03:51:52.118Z,8.84
2018-09-27T03:52:52.099Z,8.83
2018-09-27T03:53:52.074Z,8.83
2018-09-27T03:54:52.168Z,8.84
2018-09-27T03:55:52.008Z,8.81
2018-09-27T03:56:52.082Z,8.76
2018-09-27T03:57:51.970Z,8.78
2018-09-27T03:58:51.940Z,8.71
2018-09-27T03:59:52.008Z,8.72
2018-09-27T04:00:51.911Z,8.66
2018-09-27T04:01:51.916Z,8.68
2018-09-27T04:02:51.831Z,8.65
2018-09-27T04:03:51.811Z,8.65
2018-09-27T04:04:51.828Z,8.66
2018-09-27T04:05:51.748Z,8.66
2018-09-27T04:06:51.848Z,8.71
2018-09-27T04:07:51.707Z,8.69
2018-09-27T04:08:51.678Z,8.78
2018-09-27T04:09:51.769Z,8.79
2018-09-27T04:10:51.618Z,8.76
2018-09-27T04:11:51.681Z,8.78
2018-09-27T04:12:51.568Z,8.81
2018-09-27T04:13:51.541Z,8.79
2018-09-27T04:14:51.517Z,8.72
2018-09-27T04:15:51.650Z,8.72
2018-09-27T04:16:51.458Z,8.76
2018-09-27T04:17:51.518Z,8.71
2018-09-27T04:18:51.408Z,8.81
2018-09-27T04:19:51.429Z,8.84
2018-09-27T04:20:51.360Z,8.72
2018-09-27T04:21:51.489Z,8.66
2018-09-27T04:22:51.308Z,8.71
2018-09-27T04:23:51.364Z,8.69
2018-09-27T04:24:51.249Z,8.71
2018-09-27T04:25:51.375Z,8.78
2018-09-27T04:26:51.198Z,8.72
2018-09-27T04:27:51.321Z,8.57
2018-09-27T04:28:51.148Z,8.76
2018-09-27T04:29:51.126Z,8.65
2018-09-27T04:30:51.100Z,8.65
2018-09-27T04:31:51.210Z,8.58
2018-09-27T04:32:51.037Z,8.62
2018-09-27T04:33:51.139Z,8.68
2018-09-27T04:34:51.128Z,8.57
2018-09-27T04:35:50.958Z,8.60
2018-09-27T04:36:51.037Z,8.55
2018-09-27T04:37:50.907Z,8.68
2018-09-27T04:38:50.946Z,8.58
2018-09-27T04:39:50.955Z,8.60
2018-09-27T04:40:50.831Z,8.71
2018-09-27T04:41:50.866Z,8.60
2018-09-27T04:42:50.778Z,8.57
2018-09-27T04:43:50.878Z,8.62
2018-09-27T04:44:50.719Z,8.58
2018-09-27T04:45:50.723Z,8.58
2018-09-27T04:46:50.911Z,8.55
2018-09-27T04:47:50.651Z,8.48
2018-09-27T04:48:50.708Z,8.54
2018-09-27T04:49:50.597Z,8.57
2018-09-27T04:50:50.567Z,8.48
2018-09-27T04:51:50.596Z,8.51
2018-09-27T04:52:50.638Z,8.51
2018-09-27T04:53:50.488Z,8.48
2018-09-27T04:54:50.547Z,8.45
2018-09-27T04:55:50.428Z,8.50
2018-09-27T04:56:50.561Z,8.47
2018-09-27T04:57:50.377Z,8.45
2018-09-27T04:58:50.471Z,8.48
2018-09-27T04:59:50.377Z,8.50
2018-09-27T05:00:50.391Z,8.45
2018-09-27T05:01:50.267Z,8.48
2018-09-27T05:02:50.402Z,8.48
2018-09-27T05:03:50.274Z,8.50
2018-09-27T05:04:50.307Z,8.50
2018-09-27T05:05:50.168Z,8.47
2018-09-27T05:06:50.138Z,8.48
2018-09-27T05:07:50.229Z,8.48
2018-09-27T05:08:50.088Z,8.42
2018-09-27T05:09:50.255Z,8.40
2018-09-27T05:10:50.040Z,8.47
2018-09-27T05:11:50.007Z,8.47
2018-09-27T05:12:49.977Z,8.44
2018-09-27T05:13:50.068Z,8.36
2018-09-27T05:14:49.927Z,8.35
2018-09-27T05:15:50.131Z,8.32
2018-09-27T05:16:49.878Z,8.36
2018-09-27T05:17:49.997Z,8.32
2018-09-27T05:18:49.818Z,8.32
2018-09-27T05:19:49.907Z,8.36
2018-09-27T05:20:49.779Z,8.29
2018-09-27T05:21:49.917Z,8.32
2018-09-27T05:22:49.837Z,8.36
2018-09-27T05:23:49.688Z,8.30
2018-09-27T05:24:49.839Z,8.35
2018-09-27T05:25:49.638Z,8.35
2018-09-27T05:26:49.748Z,8.35
2018-09-27T05:27:49.759Z,8.37
2018-09-27T05:28:49.564Z,8.35
2018-09-27T05:29:49.668Z,8.33
2018-09-27T05:30:49.498Z,8.37
2018-09-27T05:31:49.578Z,8.40
2018-09-27T05:32:49.448Z,8.44
2018-09-27T05:33:49.598Z,8.44
2018-09-27T05:34:49.399Z,8.44
2018-09-27T05:35:49.508Z,8.42
2018-09-27T05:36:49.339Z,8.47
2018-09-27T05:37:49.518Z,8.39
2018-09-27T05:38:49.292Z,8.42
2018-09-27T05:39:49.430Z,8.44
2018-09-27T05:40:49.241Z,8.37
2018-09-27T05:41:49.338Z,8.44
2018-09-27T05:42:49.178Z,8.33
2018-09-27T05:43:49.157Z,8.37
2018-09-27T05:44:49.130Z,8.51
2018-09-27T05:45:49.278Z,8.44
2018-09-27T05:46:49.085Z,8.47
2018-09-27T05:47:49.190Z,8.47
2018-09-27T05:48:49.033Z,8.39
2018-09-27T05:49:49.241Z,8.42
2018-09-27T05:50:48.968Z,8.39
2018-09-27T05:51:49.108Z,8.33
2018-09-27T05:52:48.926Z,8.42
2018-09-27T05:53:49.011Z,8.37
2018-09-27T05:54:48.877Z,8.37
2018-09-27T05:55:49.077Z,8.36
2018-09-27T05:56:48.819Z,8.35
2018-09-27T05:57:48.949Z,8.36
2018-09-27T05:58:48.757Z,8.40
2018-09-27T05:59:48.727Z,8.45
2018-09-27T06:00:48.709Z,8.44
2018-09-27T06:01:48.873Z,8.48
2018-09-27T06:02:48.649Z,8.45
2018-09-27T06:03:48.778Z,8.45
2018-09-27T06:04:48.688Z,8.44
2018-09-27T06:05:48.568Z,8.48
2018-09-27T06:06:48.598Z,8.50
2018-09-27T06:07:48.524Z,8.50
2018-09-27T06:08:48.610Z,8.50
2018-09-27T06:09:48.472Z,8.50
2018-09-27T06:10:48.529Z,8.47
2018-09-27T06:11:48.410Z,8.57
2018-09-27T06:12:48.438Z,8.55
2018-09-27T06:13:48.358Z,8.58
2018-09-27T06:14:48.447Z,8.62
2018-09-27T06:15:48.357Z,8.57
2018-09-27T06:16:48.278Z,8.62
2018-09-27T06:17:48.367Z,8.71
2018-09-27T06:18:48.228Z,8.69
2018-09-27T06:19:48.336Z,8.68
2018-09-27T06:20:48.287Z,8.71
2018-09-27T06:21:48.156Z,8.72
2018-09-27T06:22:48.198Z,8.71
2018-09-27T06:23:48.089Z,8.66
2018-09-27T06:24:48.107Z,8.75
2018-09-27T06:25:48.047Z,8.66
2018-09-27T06:26:48.034Z,8.71
2018-09-27T06:27:47.991Z,8.81
2018-09-27T06:28:48.047Z,8.81
2018-09-27T06:29:47.928Z,8.81
2018-09-27T06:30:47.947Z,8.81
2018-09-27T06:31:47.878Z,8.79
2018-09-27T06:32:47.958Z,8.78
2018-09-27T06:33:47.831Z,8.84
2018-09-27T06:34:47.882Z,8.88
2018-09-27T06:35:47.768Z,8.96
2018-09-27T06:36:47.748Z,8.93
2018-09-27T06:37:47.726Z,9.01
2018-09-27T06:38:47.797Z,8.97
2018-09-27T06:39:47.668Z,8.97
2018-09-27T06:40:47.706Z,9.12
2018-09-27T06:41:47.717Z,9.05
2018-09-27T06:42:47.611Z,9.05
2018-09-27T06:43:47.628Z,9.13
2018-09-27T06:44:47.538Z,9.18
2018-09-27T06:45:47.551Z,9.23
2018-09-27T06:46:47.478Z,9.24
2018-09-27T06:47:47.559Z,9.27
2018-09-27T06:48:47.491Z,9.24
2018-09-27T06:49:47.478Z,9.32
2018-09-27T06:50:47.378Z,9.27
2018-09-27T06:51:47.380Z,9.39
2018-09-27T06:52:47.327Z,9.40
2018-09-27T06:53:47.409Z,9.46
2018-09-27T06:56:19.367Z,9.56
2018-09-27T06:57:19.161Z,9.50
2018-09-27T06:59:12.320Z,9.61
2018-09-27T07:00:12.117Z,9.64
2018-09-27T07:02:05.277Z,9.75
2018-09-27T07:03:05.257Z,9.81
2018-09-27T07:04:05.048Z,9.71
2018-09-27T07:05:05.076Z,9.86
2018-09-27T07:06:04.988Z,9.82
2018-09-27T07:07:05.239Z,9.86
2018-09-27T07:08:04.938Z,9.89
2018-09-27T07:09:04.911Z,9.89
2018-09-27T07:10:05.007Z,10.04
2018-09-27T07:11:04.862Z,10.00
2018-09-27T07:12:04.986Z,10.01
2018-09-27T07:13:04.810Z,10.10
2018-09-27T07:14:04.777Z,10.07
2018-09-27T07:15:04.827Z,10.12
2018-09-27T07:16:04.731Z,10.14
2018-09-27T07:17:04.737Z,10.17
2018-09-27T07:18:04.678Z,10.22
2018-09-27T07:19:04.648Z,10.26
2018-09-27T07:20:04.638Z,10.32
2018-09-27T07:21:04.668Z,10.32
2018-09-27T07:22:04.581Z,10.37
2018-09-27T07:23:04.580Z,10.39
2018-09-27T07:24:04.589Z,10.44
2018-09-27T07:25:04.526Z,10.46
2018-09-27T07:26:04.498Z,10.39
2018-09-27T07:27:04.505Z,10.39
2018-09-27T07:28:04.519Z,10.59
2018-09-27T07:29:04.405Z,10.55
2018-09-27T07:30:04.368Z,10.60
2018-09-27T07:31:04.480Z,10.74
2018-09-27T07:32:04.320Z,10.66
2018-09-27T07:33:04.348Z,10.80
2018-09-27T07:34:04.268Z,10.86
2018-09-27T07:35:04.239Z,10.86
2018-09-27T07:36:04.258Z,10.98
2018-09-27T07:37:04.192Z,10.89
2018-09-27T07:38:04.181Z,11.01
2018-09-27T07:39:04.138Z,10.99
2018-09-27T07:40:04.115Z,11.06
2018-09-27T07:41:04.088Z,11.21
2018-09-27T07:42:04.097Z,11.19
2018-09-27T07:43:04.032Z,11.19
2018-09-27T07:44:04.119Z,11.35
2018-09-27T07:45:04.023Z,11.29
2018-09-27T07:46:03.958Z,11.32
2018-09-27T07:47:04.038Z,11.28
2018-09-27T07:48:03.911Z,11.39
2018-09-27T07:49:03.952Z,11.41
2018-09-27T07:50:03.858Z,11.46
2018-09-27T07:51:03.859Z,11.57
2018-09-27T07:52:03.817Z,11.59
2018-09-27T07:53:03.869Z,11.62
2018-09-27T07:54:03.758Z,11.68
2018-09-27T07:55:03.780Z,11.64
2018-09-27T07:56:03.701Z,11.67
2018-09-27T07:57:03.700Z,11.80
2018-09-27T07:58:03.652Z,11.75
2018-09-27T07:59:03.709Z,11.89
2018-09-27T08:00:03.627Z,11.83
2018-09-27T08:01:03.579Z,11.96
2018-09-27T08:02:03.550Z,11.99
2018-09-27T08:03:03.711Z,11.90
2018-09-27T08:04:03.527Z,12.01
2018-09-27T08:05:03.550Z,12.02
2018-09-27T08:06:03.449Z,12.11
2018-09-27T08:07:03.469Z,12.19
2018-09-27T08:08:03.398Z,12.19
2018-09-27T08:09:03.469Z,12.21
2018-09-27T08:10:03.348Z,12.27
2018-09-27T08:11:03.387Z,12.44
2018-09-27T08:12:03.337Z,12.45
2018-09-27T08:13:03.280Z,12.44
2018-09-27T08:14:03.252Z,12.51
2018-09-27T08:15:03.312Z,12.64
2018-09-27T08:16:03.223Z,12.62
2018-09-27T08:17:03.226Z,12.67
2018-09-27T08:18:03.238Z,12.69
2018-09-27T08:19:03.135Z,12.82
2018-09-27T08:20:03.139Z,12.92
2018-09-27T08:21:04.248Z,12.88
2018-09-27T08:22:03.058Z,12.84
2018-09-27T08:23:03.058Z,12.95
2018-09-27T08:24:03.094Z,12.95
2018-09-27T08:25:03.068Z,13.02
2018-09-27T08:26:02.959Z,13.02
2018-09-27T08:27:02.988Z,13.11
2018-09-27T08:28:02.908Z,13.20
2018-09-27T08:29:02.899Z,13.18
2018-09-27T08:30:02.858Z,13.21
2018-09-27T08:31:02.919Z,13.30
2018-09-27T08:32:02.811Z,13.40
2018-09-27T08:33:02.829Z,13.46
2018-09-27T08:34:02.761Z,13.41
2018-09-27T08:35:02.849Z,13.52
2018-09-27T08:36:02.709Z,13.56
2018-09-27T08:37:02.692Z,13.69
2018-09-27T08:38:02.764Z,13.70
2018-09-27T08:39:02.639Z,13.65
2018-09-27T08:40:02.673Z,13.76
2018-09-27T08:41:02.599Z,13.76
2018-09-27T08:42:02.575Z,13.83
2018-09-27T08:43:02.536Z,13.89
2018-09-27T08:44:02.598Z,13.91
2018-09-27T08:45:02.716Z,13.92
2018-09-27T08:46:02.531Z,13.94
2018-09-27T08:47:02.516Z,13.99
2018-09-27T08:48:02.419Z,14.04
2018-09-27T08:49:02.429Z,14.13
2018-09-27T08:50:02.370Z,14.17
2018-09-27T08:51:02.438Z,14.24
2018-09-27T08:52:02.342Z,14.31
2018-09-27T08:53:02.299Z,14.27
2018-09-27T08:54:02.367Z,14.49
2018-09-27T08:55:02.248Z,14.47
2018-09-27T08:56:02.411Z,14.60
2018-09-27T08:57:02.215Z,14.60
2018-09-27T08:58:02.279Z,14.57
2018-09-27T08:59:02.159Z,14.72
2018-09-27T09:00:02.198Z,14.69
2018-09-27T09:01:02.108Z,14.83
2018-09-27T09:02:02.108Z,14.94
2018-09-27T09:03:02.062Z,15.21
2018-09-27T09:04:02.180Z,15.30
2018-09-27T09:05:02.019Z,15.41
2018-09-27T09:06:02.031Z,15.72
2018-09-27T09:07:01.981Z,16.01
2018-09-27T09:08:01.939Z,16.59
2018-09-27T09:09:01.961Z,17.14
2018-09-27T09:10:01.904Z,17.92
2018-09-27T09:11:01.970Z,18.73
2018-09-27T09:12:01.896Z,19.28
2018-09-27T09:13:01.835Z,19.91
2018-09-27T09:14:01.879Z,20.61
2018-09-27T09:15:01.785Z,21.05
2018-09-27T09:16:01.821Z,21.66
2018-09-27T09:17:01.739Z,22.10
2018-09-27T09:18:01.709Z,22.64
2018-09-27T09:19:01.692Z,23.15
2018-09-27T09:20:01.720Z,23.60
2018-09-27T09:21:01.651Z,23.79
2018-09-27T09:22:01.739Z,24.12
2018-09-27T09:23:01.646Z,24.75
2018-09-27T09:24:01.595Z,24.73
2018-09-27T09:25:01.659Z,24.97
2018-09-27T09:26:01.565Z,25.19
2018-09-27T09:27:01.576Z,25.31
2018-09-27T09:28:01.569Z,25.65
2018-09-27T09:29:01.478Z,25.91
2018-09-27T09:30:01.518Z,26.28
2018-09-27T09:31:01.460Z,26.65
2018-09-27T09:32:01.499Z,26.98
2018-09-27T09:33:01.401Z,27.17
2018-09-27T09:34:01.409Z,27.38
2018-09-27T09:35:01.359Z,27.70
2018-09-27T09:36:01.476Z,27.86
2018-09-27T09:37:01.331Z,27.89
2018-09-27T09:38:01.339Z,28.09
2018-09-27T09:39:01.284Z,28.29
2018-09-27T09:40:01.348Z,28.46
2018-09-27T09:41:01.248Z,28.62
2018-09-27T09:42:01.262Z,28.73
2018-09-27T09:43:01.209Z,28.77
2018-09-27T09:44:01.189Z,28.44
2018-09-27T09:45:01.279Z,28.28
2018-09-27T09:46:01.158Z,28.40
2018-09-27T09:47:01.198Z,28.63
2018-09-27T09:48:01.119Z,28.81
2018-09-27T09:49:01.108Z,28.95
2018-09-27T09:50:01.146Z,29.07
2018-09-27T09:51:01.068Z,29.28
2018-09-27T09:52:01.130Z,29.34
2018-09-27T09:53:01.045Z,29.55
2018-09-27T09:54:01.016Z,29.63
2018-09-27T09:55:01.008Z,29.79
2018-09-27T09:56:01.068Z,29.94
2018-09-27T09:57:00.978Z,30.16
2018-09-27T09:58:01.069Z,30.27
2018-09-27T09:59:00.978Z,30.27
2018-09-27T10:00:00.928Z,30.43
2018-09-27T10:01:00.988Z,30.46
2018-09-27T10:02:00.909Z,30.45
2018-09-27T10:03:00.902Z,30.65
2018-09-27T10:04:00.869Z,30.78
2018-09-27T10:05:00.852Z,30.93
2018-09-27T10:06:00.919Z,31.06
2018-09-27T10:07:00.818Z,31.15
2018-09-27T10:08:00.848Z,30.98
2018-09-27T10:09:00.897Z,30.89
2018-09-27T10:10:00.780Z,30.84
2018-09-27T10:11:00.858Z,31.01
2018-09-27T10:12:00.748Z,31.13
2018-09-27T10:13:00.770Z,31.23
2018-09-27T10:14:00.718Z,31.42
2018-09-27T10:15:00.711Z,31.57
2018-09-27T10:16:00.691Z,31.82
2018-09-27T10:17:00.788Z,31.92
2018-09-27T10:18:00.668Z,31.88
2018-09-27T10:19:00.708Z,31.85
2018-09-27T10:20:00.646Z,31.80
2018-09-27T10:21:00.727Z,32.13
2018-09-27T10:22:00.656Z,32.42
2018-09-27T10:23:00.632Z,32.05
2018-09-27T10:24:00.589Z,32.11
2018-09-27T10:25:00.648Z,32.30
2018-09-27T10:26:00.562Z,32.36
2018-09-27T10:27:00.558Z,32.51
2018-09-27T10:28:00.532Z,32.81
2018-09-27T10:29:00.579Z,32.99
2018-09-27T10:30:00.527Z,33.07
2018-09-27T10:31:00.488Z,33.08
2018-09-27T10:32:00.491Z,32.54
2018-09-27T10:33:00.501Z,32.33
2018-09-27T10:34:00.485Z,32.48
2018-09-27T10:35:00.511Z,32.64
2018-09-27T10:36:00.429Z,32.69
2018-09-27T10:37:00.529Z,32.73
2018-09-27T10:38:00.399Z,32.74
2018-09-27T10:39:00.438Z,32.74
2018-09-27T10:40:00.383Z,32.88
2018-09-27T10:41:00.448Z,33.06
2018-09-27T10:42:00.348Z,32.98
2018-09-27T10:43:00.358Z,33.08
2018-09-27T10:44:00.331Z,33.13
2018-09-27T10:45:00.387Z,33.29
2018-09-27T10:46:00.303Z,33.08
2018-09-27T10:47:00.288Z,33.34
2018-09-27T10:48:00.277Z,33.43
2018-09-27T10:49:00.298Z,33.39
2018-09-27T10:50:00.249Z,33.30
2018-09-27T10:51:00.317Z,33.29
2018-09-27T10:52:00.328Z,33.04
2018-09-27T10:53:00.229Z,32.70
2018-09-27T10:54:00.238Z,32.51
2018-09-27T10:55:00.192Z,32.69
2018-09-27T10:56:00.248Z,32.52
2018-09-27T10:57:00.202Z,32.49
2018-09-27T10:58:00.149Z,32.57
2018-09-27T10:59:00.171Z,32.35
2018-09-27T11:00:00.127Z,32.39
2018-09-27T11:01:00.178Z,32.21
2018-09-27T11:02:00.108Z,31.91
2018-09-27T11:03:00.099Z,31.99
2018-09-27T11:04:00.126Z,32.14
2018-09-27T11:05:00.079Z,32.43
2018-09-27T11:06:00.117Z,32.48
2018-09-27T11:07:00.049Z,32.73
2018-09-27T11:08:00.030Z,32.42
2018-09-27T11:09:00.019Z,32.30
2018-09-27T11:10:00.041Z,31.67
2018-09-27T11:11:00.013Z,31.04
2018-09-27T11:12:00.058Z,30.84
2018-09-27T11:12:59.968Z,29.78
2018-09-27T11:14:00.069Z,29.82
2018-09-27T11:14:59.950Z,30.21
2018-09-27T11:15:59.981Z,30.68
2018-09-27T11:16:59.935Z,31.09
2018-09-27T11:17:59.998Z,30.78
2018-09-27T11:18:59.897Z,30.21
2018-09-27T11:19:59.907Z,30.43
2018-09-27T11:20:59.879Z,30.69
2018-09-27T11:21:59.959Z,31.11
2018-09-27T11:22:59.857Z,31.11
2018-09-27T11:23:59.837Z,30.46
2018-09-27T11:24:59.827Z,30.05
2018-09-27T11:25:59.851Z,30.09
2018-09-27T11:26:59.797Z,30.03
2018-09-27T11:27:59.867Z,29.87
2018-09-27T11:28:59.856Z,30.14
2018-09-27T11:29:59.879Z,30.57
2018-09-27T11:30:59.749Z,30.68
2018-09-27T11:31:59.789Z,30.64
2018-09-27T11:32:59.749Z,30.65
2018-09-27T11:33:59.802Z,30.80
2018-09-27T11:34:59.698Z,31.01
2018-09-27T11:35:59.688Z,30.36
2018-09-27T11:36:59.720Z,30.37
2018-09-27T11:37:59.676Z,29.60
2018-09-27T11:38:59.739Z,29.33
2018-09-27T11:39:59.641Z,29.10
2018-09-27T11:40:59.649Z,29.10
2018-09-27T11:41:59.618Z,29.07
2018-09-27T11:42:59.658Z,28.40
2018-09-27T11:43:59.667Z,28.19
2018-09-27T11:44:59.589Z,28.41
2018-09-27T11:45:59.558Z,28.16
2018-09-27T11:46:59.588Z,28.31
2018-09-27T11:47:59.539Z,28.59
2018-09-27T11:48:59.702Z,28.88
2018-09-27T11:49:59.607Z,29.10
2018-09-27T11:50:59.498Z,29.20
2018-09-27T11:51:59.518Z,29.37
2018-09-27T11:52:59.468Z,29.40
2018-09-27T11:53:59.540Z,29.40
2018-09-27T11:54:59.463Z,29.62
2018-09-27T11:55:59.465Z,29.59
2018-09-27T11:56:59.449Z,29.86
2018-09-27T11:57:59.416Z,29.97
2018-09-27T11:58:59.500Z,30.12
2018-09-27T11:59:59.376Z,30.29
2018-09-27T12:00:59.369Z,30.21
2018-09-27T12:01:59.361Z,30.27
2018-09-27T12:02:59.388Z,30.21
2018-09-27T12:03:59.329Z,30.14
2018-09-27T12:04:59.410Z,30.07
2018-09-27T12:05:59.346Z,29.99
2018-09-27T12:06:59.323Z,29.62
2018-09-27T12:07:59.278Z,29.40
2018-09-27T12:08:59.331Z,29.08
2018-09-27T12:09:59.256Z,28.59
2018-09-27T12:10:59.348Z,28.53
2018-09-27T12:11:59.231Z,28.60
2018-09-27T12:12:59.259Z,28.66
2018-09-27T12:13:59.201Z,28.65
2018-09-27T12:14:59.277Z,28.81
2018-09-27T12:15:59.178Z,28.81
2018-09-27T12:16:59.170Z,28.68
2018-09-27T12:17:59.156Z,28.78
2018-09-27T12:18:59.197Z,29.16
2018-09-27T12:19:59.163Z,29.47
2018-09-27T12:20:59.217Z,29.15
2018-09-27T12:21:59.119Z,28.70
2018-09-27T12:22:59.159Z,28.59
2018-09-27T12:23:59.128Z,28.56
2018-09-27T12:24:59.060Z,28.40
2018-09-27T12:25:59.148Z,28.06
2018-09-27T12:26:59.036Z,27.96
2018-09-27T12:27:59.057Z,28.14
2018-09-27T12:28:59.009Z,28.17
2018-09-27T12:29:59.066Z,28.19
2018-09-27T12:30:59.088Z,28.29
2018-09-27T12:31:58.987Z,28.23
2018-09-27T12:32:58.957Z,28.25
2018-09-27T12:33:59.054Z,28.53
2018-09-27T12:34:58.937Z,28.72
2018-09-27T12:35:59.020Z,28.87
2018-09-27T12:36:58.908Z,28.84
2018-09-27T12:37:58.904Z,28.77
2018-09-27T12:38:58.953Z,28.66
2018-09-27T12:39:58.945Z,28.59
2018-09-27T12:40:58.857Z,28.32
2018-09-27T12:41:59.216Z,27.73
2018-09-27T12:42:58.897Z,27.58
2018-09-27T12:43:58.869Z,27.53
2018-09-27T12:44:58.812Z,27.66
2018-09-27T12:45:58.940Z,27.47
2018-09-27T12:46:58.862Z,27.66
2018-09-27T12:47:58.774Z,28.01
2018-09-27T12:48:58.792Z,28.17
2018-09-27T12:49:58.811Z,28.29
2018-09-27T12:50:58.793Z,28.09
2018-09-27T12:51:59.081Z,28.26
2018-09-27T12:52:58.785Z,28.43
2018-09-27T12:53:58.738Z,28.38
2018-09-27T12:54:58.675Z,28.28
2018-09-27T12:56:06.137Z,27.88
2018-09-27T12:57:51.775Z,28.07
2018-09-27T12:58:51.589Z,28.26
2018-09-27T13:00:44.725Z,28.66
2018-09-27T13:01:44.648Z,28.82
2018-09-27T13:03:37.519Z,28.85
2018-09-27T13:04:37.500Z,28.60
2018-09-27T13:06:30.637Z,28.22
2018-09-27T13:07:30.453Z,28.44
2018-09-27T13:09:23.683Z,28.29
2018-09-27T13:10:23.489Z,28.40
2018-09-27T13:12:16.708Z,28.03
2018-09-27T13:13:16.520Z,28.06